sensor_id;sensor_type;location;lat;lon;timestamp;pressure;altitude;pressure_sealevel;temperature;humidity
63708;BME280;67643;-34.198;22.084;2023-07-09T00:01:57;100755.88;;;13.92;38.44
63708;BME280;67643;-34.198;22.084;2023-07-09T00:04:26;100756.18;;;14.04;37.27
63708;BME280;67643;-34.198;22.084;2023-07-09T00:06:55;100759.28;;;14.20;37.17
63708;BME280;67643;-34.198;22.084;2023-07-09T00:09:27;100759.34;;;14.04;37.28
63708;BME280;67643;-34.198;22.084;2023-07-09T00:11:55;100764.32;;;14.00;38.20
63708;BME280;67643;-34.198;22.084;2023-07-09T00:14:24;100759.23;;;14.23;37.19
63708;BME280;67643;-34.198;22.084;2023-07-09T00:16:52;100763.49;;;14.16;37.42
63708;BME280;67643;-34.198;22.084;2023-07-09T00:19:22;100761.25;;;13.60;38.07
63708;BME280;67643;-34.198;22.084;2023-07-09T00:21:51;100755.56;;;14.19;37.77
63708;BME280;67643;-34.198;22.084;2023-07-09T00:24:19;100754.35;;;14.01;37.66
63708;BME280;67643;-34.198;22.084;2023-07-09T00:26:48;100757.65;;;13.79;36.81
63708;BME280;67643;-34.198;22.084;2023-07-09T00:29:17;100760.53;;;13.99;37.23
63708;BME280;67643;-34.198;22.084;2023-07-09T00:31:46;100758.88;;;13.84;37.45
63708;BME280;67643;-34.198;22.084;2023-07-09T00:34:16;100761.70;;;13.85;38.10
63708;BME280;67643;-34.198;22.084;2023-07-09T00:36:44;100760.67;;;14.06;37.53
63708;BME280;67643;-34.198;22.084;2023-07-09T00:39:16;100761.90;;;13.96;36.93
63708;BME280;67643;-34.198;22.084;2023-07-09T00:41:45;100767.50;;;13.87;37.79
63708;BME280;67643;-34.198;22.084;2023-07-09T00:44:28;100764.39;;;13.76;37.73
63708;BME280;67643;-34.198;22.084;2023-07-09T00:47:37;100769.59;;;13.79;37.64
63708;BME280;67643;-34.198;22.084;2023-07-09T00:50:11;100773.09;;;13.85;37.67
63708;BME280;67643;-34.198;22.084;2023-07-09T00:52:46;100770.92;;;13.83;37.48
63708;BME280;67643;-34.198;22.084;2023-07-09T00:55:21;100766.09;;;13.74;37.49
63708;BME280;67643;-34.198;22.084;2023-07-09T00:57:52;100777.54;;;13.99;37.94
63708;BME280;67643;-34.198;22.084;2023-07-09T01:00:25;100785.58;;;13.91;37.02
63708;BME280;67643;-34.198;22.084;2023-07-09T01:02:56;100789.05;;;14.25;37.75
63708;BME280;67643;-34.198;22.084;2023-07-09T01:05:26;100793.55;;;13.97;37.00
63708;BME280;67643;-34.198;22.084;2023-07-09T01:07:54;100801.71;;;13.92;37.79
63708;BME280;67643;-34.198;22.084;2023-07-09T01:10:23;100799.89;;;14.25;37.07
63708;BME280;67643;-34.198;22.084;2023-07-09T01:12:51;100792.75;;;14.08;37.21
63708;BME280;67643;-34.198;22.084;2023-07-09T01:15:20;100798.02;;;14.03;37.65
63708;BME280;67643;-34.198;22.084;2023-07-09T01:17:49;100793.62;;;13.95;36.86
63708;BME280;67643;-34.198;22.084;2023-07-09T01:20:19;100787.04;;;14.12;37.40
63708;BME280;67643;-34.198;22.084;2023-07-09T01:22:50;100789.66;;;13.81;37.45
63708;BME280;67643;-34.198;22.084;2023-07-09T01:25:18;100787.25;;;13.98;37.16
63708;BME280;67643;-34.198;22.084;2023-07-09T01:27:47;100786.26;;;14.03;36.71
63708;BME280;67643;-34.198;22.084;2023-07-09T01:30:19;100792.97;;;13.76;37.11
63708;BME280;67643;-34.198;22.084;2023-07-09T01:32:48;100800.97;;;13.72;37.22
63708;BME280;67643;-34.198;22.084;2023-07-09T01:35:20;100798.34;;;13.81;37.48
63708;BME280;67643;-34.198;22.084;2023-07-09T01:37:49;100803.32;;;13.83;37.60
63708;BME280;67643;-34.198;22.084;2023-07-09T01:40:20;100804.84;;;13.70;37.53
63708;BME280;67643;-34.198;22.084;2023-07-09T01:42:49;100811.42;;;13.74;37.79
63708;BME280;67643;-34.198;22.084;2023-07-09T01:45:18;100815.37;;;13.67;37.90
63708;BME280;67643;-34.198;22.084;2023-07-09T01:47:48;100819.54;;;13.59;37.43
63708;BME280;67643;-34.198;22.084;2023-07-09T01:50:16;100828.56;;;13.92;37.58
63708;BME280;67643;-34.198;22.084;2023-07-09T01:52:45;100835.00;;;14.00;37.30
63708;BME280;67643;-34.198;22.084;2023-07-09T01:55:14;100834.34;;;14.07;37.64
63708;BME280;67643;-34.198;22.084;2023-07-09T01:57:44;100840.29;;;14.01;37.46
63708;BME280;67643;-34.198;22.084;2023-07-09T02:00:15;100842.50;;;13.98;37.12
63708;BME280;67643;-34.198;22.084;2023-07-09T02:02:45;100837.71;;;14.17;37.22
63708;BME280;67643;-34.198;22.084;2023-07-09T02:05:15;100838.42;;;13.83;37.45
63708;BME280;67643;-34.198;22.084;2023-07-09T02:07:44;100841.00;;;14.13;37.54
63708;BME280;67643;-34.198;22.084;2023-07-09T02:10:13;100842.57;;;14.28;37.20
63708;BME280;67643;-34.198;22.084;2023-07-09T02:12:42;100844.35;;;13.77;37.66
63708;BME280;67643;-34.198;22.084;2023-07-09T02:15:12;100841.62;;;13.85;37.11
63708;BME280;67643;-34.198;22.084;2023-07-09T02:17:40;100840.00;;;14.00;37.13
63708;BME280;67643;-34.198;22.084;2023-07-09T02:20:10;100838.11;;;13.60;37.13
63708;BME280;67643;-34.198;22.084;2023-07-09T02:22:40;100840.42;;;13.81;37.59
63708;BME280;67643;-34.198;22.084;2023-07-09T02:25:09;100831.26;;;13.78;37.21
63708;BME280;67643;-34.198;22.084;2023-07-09T02:27:38;100835.19;;;13.61;37.18
63708;BME280;67643;-34.198;22.084;2023-07-09T02:30:08;100838.19;;;13.72;37.21
63708;BME280;67643;-34.198;22.084;2023-07-09T02:32:36;100838.52;;;13.78;37.17
63708;BME280;67643;-34.198;22.084;2023-07-09T02:35:05;100833.83;;;13.68;37.35
63708;BME280;67643;-34.198;22.084;2023-07-09T02:37:33;100837.05;;;13.71;37.11
63708;BME280;67643;-34.198;22.084;2023-07-09T02:40:03;100834.52;;;13.48;37.04
63708;BME280;67643;-34.198;22.084;2023-07-09T02:42:31;100834.00;;;13.63;37.42
63708;BME280;67643;-34.198;22.084;2023-07-09T02:45:00;100839.31;;;13.78;37.68
63708;BME280;67643;-34.198;22.084;2023-07-09T02:47:28;100836.91;;;13.70;37.19
63708;BME280;67643;-34.198;22.084;2023-07-09T02:49:57;100835.11;;;13.85;37.11
63708;BME280;67643;-34.198;22.084;2023-07-09T02:52:26;100839.82;;;13.66;36.93
63708;BME280;67643;-34.198;22.084;2023-07-09T02:54:54;100840.67;;;13.72;37.45
63708;BME280;67643;-34.198;22.084;2023-07-09T02:57:23;100841.10;;;13.78;37.95
63708;BME280;67643;-34.198;22.084;2023-07-09T02:59:52;100840.08;;;13.48;37.48
63708;BME280;67643;-34.198;22.084;2023-07-09T03:02:21;100846.18;;;13.61;37.65
63708;BME280;67643;-34.198;22.084;2023-07-09T03:04:50;100850.97;;;13.69;37.65
63708;BME280;67643;-34.198;22.084;2023-07-09T03:07:18;100849.16;;;13.99;37.85
63708;BME280;67643;-34.198;22.084;2023-07-09T03:09:47;100849.21;;;13.77;37.34
63708;BME280;67643;-34.198;22.084;2023-07-09T03:12:15;100851.70;;;13.71;37.90
63708;BME280;67643;-34.198;22.084;2023-07-09T03:14:47;100857.76;;;13.93;37.50
63708;BME280;67643;-34.198;22.084;2023-07-09T03:17:15;100849.81;;;14.16;37.30
63708;BME280;67643;-34.198;22.084;2023-07-09T03:19:44;100853.82;;;13.51;37.26
63708;BME280;67643;-34.198;22.084;2023-07-09T03:22:13;100857.85;;;13.89;37.53
63708;BME280;67643;-34.198;22.084;2023-07-09T03:24:41;100856.31;;;14.06;37.34
63708;BME280;67643;-34.198;22.084;2023-07-09T03:27:10;100862.56;;;13.95;37.38
63708;BME280;67643;-34.198;22.084;2023-07-09T03:29:38;100864.87;;;14.36;37.21
63708;BME280;67643;-34.198;22.084;2023-07-09T03:32:07;100870.37;;;14.00;37.21
63708;BME280;67643;-34.198;22.084;2023-07-09T03:34:36;100882.53;;;13.88;37.34
63708;BME280;67643;-34.198;22.084;2023-07-09T03:37:05;100888.03;;;14.21;37.56
63708;BME280;67643;-34.198;22.084;2023-07-09T03:39:33;100888.19;;;13.88;37.72
63708;BME280;67643;-34.198;22.084;2023-07-09T03:42:02;100886.50;;;13.93;37.60
63708;BME280;67643;-34.198;22.084;2023-07-09T03:44:30;100886.34;;;13.95;37.90
63708;BME280;67643;-34.198;22.084;2023-07-09T03:46:59;100896.11;;;14.25;37.54
63708;BME280;67643;-34.198;22.084;2023-07-09T03:49:27;100903.38;;;14.24;37.62
63708;BME280;67643;-34.198;22.084;2023-07-09T03:51:56;100909.89;;;14.32;37.69
63708;BME280;67643;-34.198;22.084;2023-07-09T03:54:25;100922.37;;;14.04;37.57
63708;BME280;67643;-34.198;22.084;2023-07-09T03:56:53;100923.23;;;14.04;37.96
63708;BME280;67643;-34.198;22.084;2023-07-09T03:59:22;100926.93;;;14.03;38.05
63708;BME280;67643;-34.198;22.084;2023-07-09T04:01:51;100934.14;;;14.11;38.01
63708;BME280;67643;-34.198;22.084;2023-07-09T04:04:19;100939.70;;;14.13;37.98
63708;BME280;67643;-34.198;22.084;2023-07-09T04:06:48;100944.49;;;13.99;37.96
63708;BME280;67643;-34.198;22.084;2023-07-09T04:09:17;100956.57;;;14.32;37.85
63708;BME280;67643;-34.198;22.084;2023-07-09T04:11:45;100960.29;;;14.05;37.98
63708;BME280;67643;-34.198;22.084;2023-07-09T04:14:14;100970.15;;;13.80;38.29
63708;BME280;67643;-34.198;22.084;2023-07-09T04:16:42;100972.32;;;14.16;38.05
63708;BME280;67643;-34.198;22.084;2023-07-09T04:19:11;100972.63;;;14.39;37.87
63708;BME280;67643;-34.198;22.084;2023-07-09T04:21:39;100971.54;;;14.30;38.01
63708;BME280;67643;-34.198;22.084;2023-07-09T04:24:08;100980.03;;;14.33;38.06
63708;BME280;67643;-34.198;22.084;2023-07-09T04:26:37;100980.11;;;14.07;38.18
63708;BME280;67643;-34.198;22.084;2023-07-09T04:29:05;100980.99;;;14.16;38.36
63708;BME280;67643;-34.198;22.084;2023-07-09T04:31:34;100981.56;;;14.02;38.30
63708;BME280;67643;-34.198;22.084;2023-07-09T04:34:03;100984.28;;;13.73;38.73
63708;BME280;67643;-34.198;22.084;2023-07-09T04:36:31;100979.97;;;14.08;38.59
63708;BME280;67643;-34.198;22.084;2023-07-09T04:39:00;100983.35;;;14.18;38.53
63708;BME280;67643;-34.198;22.084;2023-07-09T04:41:28;100987.12;;;13.89;38.81
63708;BME280;67643;-34.198;22.084;2023-07-09T04:43:57;100986.86;;;13.70;39.15
63708;BME280;67643;-34.198;22.084;2023-07-09T04:46:25;100995.52;;;13.75;39.09
63708;BME280;67643;-34.198;22.084;2023-07-09T04:48:54;101011.19;;;13.73;39.23
63708;BME280;67643;-34.198;22.084;2023-07-09T04:51:23;101022.34;;;13.69;39.24
63708;BME280;67643;-34.198;22.084;2023-07-09T04:53:51;101030.16;;;13.76;39.19
63708;BME280;67643;-34.198;22.084;2023-07-09T04:56:20;101033.62;;;13.56;39.45
63708;BME280;67643;-34.198;22.084;2023-07-09T04:58:49;101039.15;;;13.35;39.62
63708;BME280;67643;-34.198;22.084;2023-07-09T05:01:17;101052.17;;;13.73;39.41
63708;BME280;67643;-34.198;22.084;2023-07-09T05:03:46;101063.15;;;13.64;39.67
63708;BME280;67643;-34.198;22.084;2023-07-09T05:06:15;101073.10;;;13.87;39.39
63708;BME280;67643;-34.198;22.084;2023-07-09T05:08:43;101077.79;;;13.73;39.25
63708;BME280;67643;-34.198;22.084;2023-07-09T05:11:12;101093.93;;;13.98;39.31
63708;BME280;67643;-34.198;22.084;2023-07-09T05:13:42;101100.52;;;14.00;38.96
63708;BME280;67643;-34.198;22.084;2023-07-09T05:16:10;101112.61;;;14.19;39.01
63708;BME280;67643;-34.198;22.084;2023-07-09T05:18:39;101109.35;;;14.37;38.83
63708;BME280;67643;-34.198;22.084;2023-07-09T05:21:08;101107.34;;;13.96;39.49
63708;BME280;67643;-34.198;22.084;2023-07-09T05:23:37;101104.53;;;14.03;39.10
63708;BME280;67643;-34.198;22.084;2023-07-09T05:26:05;101109.01;;;13.63;39.35
63708;BME280;67643;-34.198;22.084;2023-07-09T05:28:34;101103.80;;;14.15;39.34
63708;BME280;67643;-34.198;22.084;2023-07-09T05:31:03;101114.86;;;14.06;39.18
63708;BME280;67643;-34.198;22.084;2023-07-09T05:33:31;101119.90;;;14.15;39.51
63708;BME280;67643;-34.198;22.084;2023-07-09T05:36:00;101123.75;;;14.20;39.47
63708;BME280;67643;-34.198;22.084;2023-07-09T05:38:28;101130.93;;;13.89;39.65
63708;BME280;67643;-34.198;22.084;2023-07-09T05:41:01;101133.91;;;13.90;39.65
63708;BME280;67643;-34.198;22.084;2023-07-09T05:43:30;101136.08;;;14.36;39.32
63708;BME280;67643;-34.198;22.084;2023-07-09T05:46:00;101139.81;;;14.24;39.62
63708;BME280;67643;-34.198;22.084;2023-07-09T05:48:29;101141.63;;;14.38;39.46
63708;BME280;67643;-34.198;22.084;2023-07-09T05:50:57;101140.13;;;14.07;39.89
63708;BME280;67643;-34.198;22.084;2023-07-09T05:53:26;101136.36;;;13.76;40.04
63708;BME280;67643;-34.198;22.084;2023-07-09T05:55:55;101139.07;;;13.98;40.08
63708;BME280;67643;-34.198;22.084;2023-07-09T05:58:23;101139.86;;;13.82;40.41
63708;BME280;67643;-34.198;22.084;2023-07-09T06:00:53;101143.76;;;13.88;40.30
63708;BME280;67643;-34.198;22.084;2023-07-09T06:03:23;101146.89;;;13.63;40.40
63708;BME280;67643;-34.198;22.084;2023-07-09T06:05:52;101154.57;;;13.66;40.72
63708;BME280;67643;-34.198;22.084;2023-07-09T06:08:21;101156.40;;;13.43;40.80
63708;BME280;67643;-34.198;22.084;2023-07-09T06:10:54;101161.10;;;13.76;40.68
63708;BME280;67643;-34.198;22.084;2023-07-09T06:13:23;101169.95;;;13.75;40.79
63708;BME280;67643;-34.198;22.084;2023-07-09T06:15:53;101172.81;;;13.53;41.09
63708;BME280;67643;-34.198;22.084;2023-07-09T06:18:23;101182.80;;;13.60;41.06
63708;BME280;67643;-34.198;22.084;2023-07-09T06:20:54;101184.54;;;13.75;40.86
63708;BME280;67643;-34.198;22.084;2023-07-09T06:23:22;101190.28;;;13.58;41.04
63708;BME280;67643;-34.198;22.084;2023-07-09T06:25:52;101194.92;;;13.82;40.73
63708;BME280;67643;-34.198;22.084;2023-07-09T06:28:24;101197.58;;;13.66;41.07
63708;BME280;67643;-34.198;22.084;2023-07-09T06:30:54;101197.74;;;13.44;41.46
63708;BME280;67643;-34.198;22.084;2023-07-09T06:33:22;101203.53;;;13.38;41.69
63708;BME280;67643;-34.198;22.084;2023-07-09T06:35:52;101210.52;;;13.46;41.50
63708;BME280;67643;-34.198;22.084;2023-07-09T06:38:21;101221.08;;;13.59;41.28
63708;BME280;67643;-34.198;22.084;2023-07-09T06:40:50;101226.73;;;13.83;40.92
63708;BME280;67643;-34.198;22.084;2023-07-09T06:43:19;101242.62;;;13.90;40.82
63708;BME280;67643;-34.198;22.084;2023-07-09T06:45:51;101241.06;;;13.60;41.02
63708;BME280;67643;-34.198;22.084;2023-07-09T06:48:21;101244.02;;;13.96;40.83
63708;BME280;67643;-34.198;22.084;2023-07-09T06:50:51;101238.85;;;13.99;40.58
63708;BME280;67643;-34.198;22.084;2023-07-09T06:53:20;101245.08;;;14.08;40.82
63708;BME280;67643;-34.198;22.084;2023-07-09T06:55:49;101243.89;;;13.93;41.19
63708;BME280;67643;-34.198;22.084;2023-07-09T06:58:18;101245.96;;;13.81;41.09
63708;BME280;67643;-34.198;22.084;2023-07-09T07:00:49;101250.45;;;14.27;40.66
63708;BME280;67643;-34.198;22.084;2023-07-09T07:03:18;101255.71;;;13.86;41.09
63708;BME280;67643;-34.198;22.084;2023-07-09T07:05:47;101266.06;;;14.08;40.77
63708;BME280;67643;-34.198;22.084;2023-07-09T07:08:18;101273.60;;;13.92;41.77
63708;BME280;67643;-34.198;22.084;2023-07-09T07:10:48;101280.27;;;13.78;41.77
63708;BME280;67643;-34.198;22.084;2023-07-09T07:13:17;101278.00;;;13.97;42.04
63708;BME280;67643;-34.198;22.084;2023-07-09T07:15:49;101276.96;;;14.11;41.43
63708;BME280;67643;-34.198;22.084;2023-07-09T07:18:17;101286.24;;;14.76;40.85
63708;BME280;67643;-34.198;22.084;2023-07-09T07:20:46;101289.81;;;14.67;40.81
63708;BME280;67643;-34.198;22.084;2023-07-09T07:23:14;101293.87;;;14.47;41.20
63708;BME280;67643;-34.198;22.084;2023-07-09T07:25:44;101283.04;;;14.52;41.86
63708;BME280;67643;-34.198;22.084;2023-07-09T07:28:13;101290.46;;;14.08;42.06
63708;BME280;67643;-34.198;22.084;2023-07-09T07:30:41;101293.96;;;13.94;41.77
63708;BME280;67643;-34.198;22.084;2023-07-09T07:33:10;101296.61;;;14.21;41.98
63708;BME280;67643;-34.198;22.084;2023-07-09T07:35:39;101318.31;;;14.42;42.02
63708;BME280;67643;-34.198;22.084;2023-07-09T07:38:08;101354.62;;;14.71;41.34
63708;BME280;67643;-34.198;22.084;2023-07-09T07:40:36;101350.19;;;14.74;40.95
63708;BME280;67643;-34.198;22.084;2023-07-09T07:43:04;101351.94;;;14.72;41.02
63708;BME280;67643;-34.198;22.084;2023-07-09T07:45:33;101373.21;;;14.90;41.33
63708;BME280;67643;-34.198;22.084;2023-07-09T07:48:02;101378.11;;;15.03;40.82
63708;BME280;67643;-34.198;22.084;2023-07-09T07:50:30;101394.15;;;15.02;41.02
63708;BME280;67643;-34.198;22.084;2023-07-09T07:52:59;101383.53;;;15.10;41.35
63708;BME280;67643;-34.198;22.084;2023-07-09T07:55:28;101386.66;;;15.08;41.15
63708;BME280;67643;-34.198;22.084;2023-07-09T07:57:56;101393.54;;;14.87;41.25
63708;BME280;67643;-34.198;22.084;2023-07-09T08:00:25;101391.80;;;15.22;41.12
63708;BME280;67643;-34.198;22.084;2023-07-09T08:02:53;101385.16;;;15.36;41.35
63708;BME280;67643;-34.198;22.084;2023-07-09T08:05:22;101390.87;;;15.41;41.31
63708;BME280;67643;-34.198;22.084;2023-07-09T08:07:51;101394.85;;;15.21;41.20
63708;BME280;67643;-34.198;22.084;2023-07-09T08:10:19;101393.97;;;15.22;41.17
63708;BME280;67643;-34.198;22.084;2023-07-09T08:12:48;101396.38;;;15.26;41.15
63708;BME280;67643;-34.198;22.084;2023-07-09T08:15:16;101400.09;;;15.69;40.92
63708;BME280;67643;-34.198;22.084;2023-07-09T08:17:45;101399.11;;;15.11;41.12
63708;BME280;67643;-34.198;22.084;2023-07-09T08:20:14;101396.92;;;15.49;40.92
63708;BME280;67643;-34.198;22.084;2023-07-09T08:22:42;101389.12;;;15.33;40.84
63708;BME280;67643;-34.198;22.084;2023-07-09T08:25:11;101395.96;;;15.13;41.33
63708;BME280;67643;-34.198;22.084;2023-07-09T08:27:40;101405.98;;;14.93;41.30
63708;BME280;67643;-34.198;22.084;2023-07-09T08:30:09;101421.89;;;15.40;40.90
63708;BME280;67643;-34.198;22.084;2023-07-09T08:32:38;101443.91;;;15.35;40.98
63708;BME280;67643;-34.198;22.084;2023-07-09T08:35:07;101449.00;;;15.13;41.43
63708;BME280;67643;-34.198;22.084;2023-07-09T08:37:36;101452.69;;;14.99;41.56
63708;BME280;67643;-34.198;22.084;2023-07-09T08:40:07;101451.08;;;15.67;41.14
63708;BME280;67643;-34.198;22.084;2023-07-09T08:42:43;101459.17;;;15.58;40.94
63708;BME280;67643;-34.198;22.084;2023-07-09T08:45:20;101463.27;;;15.61;40.98
63708;BME280;67643;-34.198;22.084;2023-07-09T08:48:00;101455.31;;;15.47;41.18
63708;BME280;67643;-34.198;22.084;2023-07-09T08:50:35;101452.35;;;15.39;41.34
63708;BME280;67643;-34.198;22.084;2023-07-09T08:53:05;101450.05;;;15.30;41.11
63708;BME280;67643;-34.198;22.084;2023-07-09T08:55:37;101461.37;;;15.36;41.03
63708;BME280;67643;-34.198;22.084;2023-07-09T08:58:12;101460.72;;;15.63;40.99
63708;BME280;67643;-34.198;22.084;2023-07-09T09:00:48;101462.73;;;15.63;40.98
63708;BME280;67643;-34.198;22.084;2023-07-09T09:03:27;101467.13;;;15.77;41.08
63708;BME280;67643;-34.198;22.084;2023-07-09T09:05:58;101456.70;;;15.54;41.05
63708;BME280;67643;-34.198;22.084;2023-07-09T09:08:35;101478.12;;;15.53;41.10
63708;BME280;67643;-34.198;22.084;2023-07-09T09:11:12;101477.89;;;15.46;41.16
63708;BME280;67643;-34.198;22.084;2023-07-09T09:13:43;101478.03;;;15.75;41.11
63708;BME280;67643;-34.198;22.084;2023-07-09T09:16:21;101479.02;;;15.93;40.90
63708;BME280;67643;-34.198;22.084;2023-07-09T09:18:50;101481.65;;;15.75;41.15
63708;BME280;67643;-34.198;22.084;2023-07-09T09:21:26;101486.93;;;15.55;41.16
63708;BME280;67643;-34.198;22.084;2023-07-09T09:23:58;101488.21;;;15.33;41.16
63708;BME280;67643;-34.198;22.084;2023-07-09T09:26:34;101491.45;;;15.14;41.85
63708;BME280;67643;-34.198;22.084;2023-07-09T09:29:12;101489.63;;;15.41;41.54
63708;BME280;67643;-34.198;22.084;2023-07-09T09:31:42;101487.61;;;15.72;41.59
63708;BME280;67643;-34.198;22.084;2023-07-09T09:34:18;101493.04;;;15.41;41.67
63708;BME280;67643;-34.198;22.084;2023-07-09T09:36:49;101496.45;;;16.04;41.48
63708;BME280;67643;-34.198;22.084;2023-07-09T09:39:18;101495.43;;;15.68;42.18
63708;BME280;67643;-34.198;22.084;2023-07-09T09:41:47;101496.25;;;15.31;42.18
63708;BME280;67643;-34.198;22.084;2023-07-09T09:44:19;101498.51;;;15.71;42.02
63708;BME280;67643;-34.198;22.084;2023-07-09T09:46:49;101503.01;;;15.63;41.74
63708;BME280;67643;-34.198;22.084;2023-07-09T09:49:18;101503.09;;;15.50;41.90
63708;BME280;67643;-34.198;22.084;2023-07-09T09:51:47;101503.29;;;15.44;42.20
63708;BME280;67643;-34.198;22.084;2023-07-09T09:54:19;101506.96;;;15.51;42.10
63708;BME280;67643;-34.198;22.084;2023-07-09T09:56:50;101503.26;;;15.57;42.12
63708;BME280;67643;-34.198;22.084;2023-07-09T09:59:27;101510.34;;;15.77;41.91
63708;BME280;67643;-34.198;22.084;2023-07-09T10:02:00;101515.21;;;15.82;41.82
63708;BME280;67643;-34.198;22.084;2023-07-09T10:04:29;101514.29;;;15.89;41.91
63708;BME280;67643;-34.198;22.084;2023-07-09T10:07:03;101511.83;;;16.09;41.70
63708;BME280;67643;-34.198;22.084;2023-07-09T10:09:43;101510.89;;;16.05;41.76
63708;BME280;67643;-34.198;22.084;2023-07-09T10:12:22;101512.13;;;15.90;42.04
63708;BME280;67643;-34.198;22.084;2023-07-09T10:14:58;101506.84;;;16.26;41.84
63708;BME280;67643;-34.198;22.084;2023-07-09T10:17:36;101501.75;;;16.16;41.86
63708;BME280;67643;-34.198;22.084;2023-07-09T10:20:19;101498.62;;;15.94;41.78
63708;BME280;67643;-34.198;22.084;2023-07-09T10:22:54;101499.17;;;16.29;42.07
63708;BME280;67643;-34.198;22.084;2023-07-09T10:25:35;101494.33;;;16.53;41.75
63708;BME280;67643;-34.198;22.084;2023-07-09T10:28:26;101513.40;;;16.46;41.85
63708;BME280;67643;-34.198;22.084;2023-07-09T10:31:07;101506.61;;;16.00;42.11
63708;BME280;67643;-34.198;22.084;2023-07-09T10:33:45;101500.52;;;16.29;42.17
63708;BME280;67643;-34.198;22.084;2023-07-09T10:36:29;101498.19;;;16.23;42.27
63708;BME280;67643;-34.198;22.084;2023-07-09T10:39:05;101495.81;;;16.23;42.12
63708;BME280;67643;-34.198;22.084;2023-07-09T10:41:36;101500.91;;;16.13;42.26
63708;BME280;67643;-34.198;22.084;2023-07-09T10:44:13;101500.23;;;16.30;42.33
63708;BME280;67643;-34.198;22.084;2023-07-09T10:46:50;101500.42;;;15.94;42.46
63708;BME280;67643;-34.198;22.084;2023-07-09T10:49:21;101500.14;;;15.80;42.60
63708;BME280;67643;-34.198;22.084;2023-07-09T10:51:55;101502.52;;;15.76;42.63
63708;BME280;67643;-34.198;22.084;2023-07-09T10:54:49;101500.15;;;15.51;42.53
63708;BME280;67643;-34.198;22.084;2023-07-09T10:57:28;101497.55;;;15.61;42.81
63708;BME280;67643;-34.198;22.084;2023-07-09T10:59:57;101493.87;;;15.68;42.71
63708;BME280;67643;-34.198;22.084;2023-07-09T11:02:29;101499.30;;;15.68;42.72
63708;BME280;67643;-34.198;22.084;2023-07-09T11:04:59;101507.66;;;15.60;42.40
63708;BME280;67643;-34.198;22.084;2023-07-09T11:07:32;101511.93;;;15.70;42.63
63708;BME280;67643;-34.198;22.084;2023-07-09T11:10:03;101517.68;;;15.70;42.61
63708;BME280;67643;-34.198;22.084;2023-07-09T11:12:36;101523.49;;;15.76;42.49
63708;BME280;67643;-34.198;22.084;2023-07-09T11:15:11;101524.99;;;15.90;42.29
63708;BME280;67643;-34.198;22.084;2023-07-09T11:17:44;101524.64;;;15.80;42.40
63708;BME280;67643;-34.198;22.084;2023-07-09T11:20:20;101526.03;;;15.58;42.40
63708;BME280;67643;-34.198;22.084;2023-07-09T11:22:59;101526.74;;;15.92;42.28
63708;BME280;67643;-34.198;22.084;2023-07-09T11:25:39;101524.97;;;15.79;42.54
63708;BME280;67643;-34.198;22.084;2023-07-09T11:28:08;101525.25;;;15.92;42.66
63708;BME280;67643;-34.198;22.084;2023-07-09T11:30:48;101524.46;;;15.90;42.75
63708;BME280;67643;-34.198;22.084;2023-07-09T11:33:19;101527.32;;;15.48;43.10
63708;BME280;67643;-34.198;22.084;2023-07-09T11:35:50;101529.38;;;15.56;43.00
63708;BME280;67643;-34.198;22.084;2023-07-09T11:38:21;101531.52;;;15.54;43.04
63708;BME280;67643;-34.198;22.084;2023-07-09T11:40:52;101536.91;;;15.62;42.92
63708;BME280;67643;-34.198;22.084;2023-07-09T11:43:32;101542.73;;;15.62;42.94
63708;BME280;67643;-34.198;22.084;2023-07-09T11:46:07;101546.40;;;15.64;42.88
63708;BME280;67643;-34.198;22.084;2023-07-09T11:48:40;101545.74;;;15.42;42.84
63708;BME280;67643;-34.198;22.084;2023-07-09T11:51:14;101544.66;;;15.69;42.86
63708;BME280;67643;-34.198;22.084;2023-07-09T11:53:46;101542.52;;;15.46;42.82
63708;BME280;67643;-34.198;22.084;2023-07-09T11:56:19;101542.27;;;15.64;42.55
63708;BME280;67643;-34.198;22.084;2023-07-09T11:58:51;101540.18;;;15.90;42.59
63708;BME280;67643;-34.198;22.084;2023-07-09T12:01:23;101538.73;;;16.04;42.44
63708;BME280;67643;-34.198;22.084;2023-07-09T12:03:56;101541.45;;;16.12;42.36
63708;BME280;67643;-34.198;22.084;2023-07-09T12:06:28;101537.00;;;16.03;42.05
63708;BME280;67643;-34.198;22.084;2023-07-09T12:08:56;101563.35;;;15.96;42.11
63708;BME280;67643;-34.198;22.084;2023-07-09T12:11:27;101554.60;;;15.92;42.18
63708;BME280;67643;-34.198;22.084;2023-07-09T12:14:03;101549.43;;;16.01;42.39
63708;BME280;67643;-34.198;22.084;2023-07-09T12:16:35;101555.10;;;15.79;42.36
63708;BME280;67643;-34.198;22.084;2023-07-09T12:19:07;101555.03;;;15.72;42.44
63708;BME280;67643;-34.198;22.084;2023-07-09T12:21:39;101560.01;;;15.95;42.43
63708;BME280;67643;-34.198;22.084;2023-07-09T12:24:19;101560.79;;;15.65;42.51
63708;BME280;67643;-34.198;22.084;2023-07-09T12:26:51;101563.61;;;15.80;42.71
63708;BME280;67643;-34.198;22.084;2023-07-09T12:29:24;101569.31;;;15.72;42.84
63708;BME280;67643;-34.198;22.084;2023-07-09T12:31:52;101571.39;;;15.70;42.87
63708;BME280;67643;-34.198;22.084;2023-07-09T12:34:21;101574.93;;;15.79;42.70
63708;BME280;67643;-34.198;22.084;2023-07-09T12:36:52;101578.16;;;15.74;42.78
63708;BME280;67643;-34.198;22.084;2023-07-09T12:39:24;101579.26;;;15.76;42.75
63708;BME280;67643;-34.198;22.084;2023-07-09T12:41:56;101581.20;;;15.67;42.86
63708;BME280;67643;-34.198;22.084;2023-07-09T12:44:28;101583.05;;;15.73;42.78
63708;BME280;67643;-34.198;22.084;2023-07-09T12:46:58;101589.13;;;15.77;42.71
63708;BME280;67643;-34.198;22.084;2023-07-09T12:49:28;101590.43;;;15.75;42.74